createdAt,value
2018-03-24T00:00:33.810Z,7.00
2018-03-24T00:03:12.259Z,6.90
2018-03-24T00:05:50.728Z,6.70
2018-03-24T00:08:18.439Z,6.60
2018-03-24T00:10:45.354Z,6.30
2018-03-24T00:13:12.300Z,6.30
2018-03-24T00:15:39.204Z,6.40
2018-03-24T00:18:06.226Z,6.40
2018-03-24T00:20:33.115Z,6.60
2018-03-24T00:23:00.818Z,6.60
2018-03-24T00:25:27.805Z,6.60
2018-03-24T00:27:54.774Z,6.60
2018-03-24T00:30:22.415Z,6.70
2018-03-24T00:32:49.364Z,6.70
2018-03-24T00:35:27.271Z,6.80
2018-03-24T00:37:54.928Z,6.70
2018-03-24T00:40:21.880Z,6.90
2018-03-24T00:42:55.723Z,6.80
2018-03-24T00:45:22.779Z,6.50
2018-03-24T00:47:53.307Z,6.60
2018-03-24T00:50:35.550Z,6.50
2018-03-24T00:53:12.618Z,6.40
2018-03-24T00:55:39.516Z,6.00
2018-03-24T00:58:07.200Z,5.70
2018-03-24T01:00:46.159Z,5.70
2018-03-24T01:03:25.141Z,5.70
2018-03-24T01:06:04.742Z,5.40
2018-03-24T01:08:43.450Z,5.40
2018-03-24T01:11:22.709Z,5.40
2018-03-24T01:13:50.392Z,5.30
2018-03-24T01:16:27.525Z,5.30
2018-03-24T01:19:00.226Z,5.20
2018-03-24T01:21:33.855Z,4.90
2018-03-24T01:24:00.771Z,4.80
2018-03-24T01:26:38.854Z,4.60
2018-03-24T01:29:17.126Z,4.50
2018-03-24T01:31:51.934Z,4.50
2018-03-24T01:34:31.360Z,4.40
2018-03-24T01:37:09.967Z,4.30
2018-03-24T01:39:38.536Z,4.20
2018-03-24T01:42:05.488Z,4.30
2018-03-24T01:44:32.453Z,4.30
2018-03-24T01:47:00.984Z,4.40
2018-03-24T01:49:27.876Z,4.40
2018-03-24T01:51:54.829Z,4.30
2018-03-24T01:54:26.387Z,4.20
2018-03-24T01:56:53.355Z,4.20
2018-03-24T01:59:20.271Z,4.20
2018-03-24T02:01:51.462Z,4.20
2018-03-24T02:04:20.393Z,4.20
2018-03-24T02:06:49.604Z,3.90
2018-03-24T02:09:16.587Z,3.90
2018-03-24T02:11:43.520Z,3.80
2018-03-24T02:14:10.462Z,3.90
2018-03-24T02:16:37.339Z,3.90
2018-03-24T02:19:04.279Z,3.70
2018-03-24T02:21:32.156Z,3.70
2018-03-24T02:23:59.167Z,3.60
2018-03-24T02:26:27.843Z,3.60
2018-03-24T02:28:55.103Z,3.50
2018-03-24T02:31:22.838Z,3.50
2018-03-24T02:33:49.914Z,3.50
2018-03-24T02:36:16.812Z,3.30
2018-03-24T02:38:43.712Z,3.30
2018-03-24T02:41:10.698Z,3.30
2018-03-24T02:43:37.583Z,3.20
2018-03-24T02:46:04.566Z,3.20
2018-03-24T02:48:31.449Z,3.10
2018-03-24T02:50:59.336Z,3.00
2018-03-24T02:53:26.190Z,2.90
2018-03-24T02:55:53.120Z,3.10
2018-03-24T02:58:20.063Z,3.00
2018-03-24T03:00:46.994Z,3.00
2018-03-24T03:03:14.252Z,3.00
2018-03-24T03:05:42.129Z,3.10
2018-03-24T03:08:09.259Z,3.10
2018-03-24T03:10:37.283Z,3.10
2018-03-24T03:13:04.568Z,3.10
2018-03-24T03:15:31.470Z,3.00
2018-03-24T03:17:58.702Z,2.90
2018-03-24T03:20:26.640Z,3.00
2018-03-24T03:22:53.556Z,3.00
2018-03-24T03:25:20.572Z,3.10
2018-03-24T03:27:48.260Z,3.30
2018-03-24T03:30:29.985Z,3.30
2018-03-24T03:32:57.026Z,3.20
2018-03-24T03:35:24.004Z,3.10
2018-03-24T03:37:50.868Z,3.20
2018-03-24T03:40:18.536Z,3.00
2018-03-24T03:42:45.411Z,3.00
2018-03-24T03:45:12.350Z,3.00
2018-03-24T03:47:39.234Z,3.00
2018-03-24T03:50:06.281Z,3.00
2018-03-24T03:52:33.167Z,2.90
2018-03-24T03:55:00.088Z,2.90
2018-03-24T03:57:27.150Z,2.90
2018-03-24T03:59:54.844Z,2.80
2018-03-24T04:02:21.724Z,2.80
2018-03-24T04:04:48.671Z,3.00
2018-03-24T04:07:15.536Z,2.90
2018-03-24T04:09:42.486Z,3.00
2018-03-24T04:12:09.404Z,2.90
2018-03-24T04:14:36.360Z,2.80
2018-03-24T04:17:03.235Z,2.90
2018-03-24T04:19:30.162Z,2.90
2018-03-24T04:21:57.115Z,2.80
2018-03-24T04:24:24.831Z,2.80
2018-03-24T04:26:51.759Z,2.80
2018-03-24T04:29:18.630Z,2.80
2018-03-24T04:31:45.572Z,2.80
2018-03-24T04:34:12.452Z,2.90
2018-03-24T04:36:39.427Z,2.80
2018-03-24T04:39:06.367Z,2.90
2018-03-24T04:41:33.393Z,2.70
2018-03-24T04:44:00.284Z,2.70
2018-03-24T04:46:27.160Z,2.40
2018-03-24T04:48:54.097Z,2.40
2018-03-24T04:51:20.995Z,2.40
2018-03-24T04:53:48.725Z,2.10
2018-03-24T04:56:15.588Z,2.20
2018-03-24T04:58:42.524Z,2.20
2018-03-24T05:01:09.502Z,2.10
2018-03-24T05:03:36.376Z,2.00
2018-03-24T05:06:03.292Z,2.10
2018-03-24T05:08:30.230Z,2.10
2018-03-24T05:10:57.140Z,2.30
2018-03-24T05:13:24.079Z,2.30
2018-03-24T05:15:51.045Z,2.30
2018-03-24T05:18:17.983Z,2.30
2018-03-24T05:20:44.860Z,2.00
2018-03-24T05:23:12.461Z,2.00
2018-03-24T05:25:40.596Z,2.00
2018-03-24T05:28:23.649Z,1.90
2018-03-24T05:30:51.408Z,1.90
2018-03-24T05:33:18.350Z,1.90
2018-03-24T05:35:45.220Z,2.00
2018-03-24T05:38:12.149Z,2.00
2018-03-24T05:40:39.038Z,2.10
2018-03-24T05:43:05.983Z,2.30
2018-03-24T05:45:32.857Z,2.30
2018-03-24T05:48:00.485Z,2.40
2018-03-24T05:50:27.453Z,2.30
2018-03-24T05:52:55.067Z,2.30
2018-03-24T05:55:22.006Z,2.40
2018-03-24T05:57:48.903Z,2.10
2018-03-24T06:00:16.687Z,2.10
2018-03-24T06:02:44.365Z,2.20
2018-03-24T06:05:11.254Z,2.20
2018-03-24T06:07:38.179Z,2.10
2018-03-24T06:10:05.250Z,2.10
2018-03-24T06:12:32.141Z,2.20
2018-03-24T06:14:59.083Z,2.00
2018-03-24T06:17:26.764Z,2.30
2018-03-24T06:19:53.737Z,2.30
2018-03-24T06:22:20.611Z,2.80
2018-03-24T06:24:47.483Z,2.80
2018-03-24T06:27:15.193Z,2.40
2018-03-24T06:29:42.146Z,2.40
2018-03-24T06:32:09.163Z,2.20
2018-03-24T06:34:36.172Z,2.70
2018-03-24T06:37:13.802Z,2.20
2018-03-24T06:39:40.786Z,2.10
2018-03-24T06:42:07.801Z,2.40
2018-03-24T06:44:34.762Z,2.30
2018-03-24T06:47:01.756Z,2.40
2018-03-24T06:49:29.445Z,2.30
2018-03-24T06:51:56.367Z,2.30
2018-03-24T06:54:23.299Z,2.40
2018-03-24T06:56:50.186Z,2.70
2018-03-24T06:59:17.144Z,2.80
2018-03-24T07:01:44.064Z,2.60
2018-03-24T07:04:11.798Z,2.90
2018-03-24T07:06:39.304Z,2.90
2018-03-24T07:09:19.669Z,3.50
2018-03-24T07:11:47.213Z,3.70
2018-03-24T07:14:14.167Z,3.90
2018-03-24T07:16:41.124Z,4.10
2018-03-24T07:19:08.045Z,4.70
2018-03-24T07:21:35.007Z,4.70
2018-03-24T07:24:01.980Z,5.40
2018-03-24T07:26:28.907Z,5.10
2018-03-24T07:28:55.863Z,5.80
2018-03-24T07:31:22.907Z,6.30
2018-03-24T07:33:49.812Z,6.30
2018-03-24T07:36:17.513Z,6.80
2018-03-24T07:38:47.669Z,6.80
2018-03-24T07:41:14.783Z,7.30
2018-03-24T07:43:41.694Z,6.40
2018-03-24T07:46:09.460Z,8.10
2018-03-24T07:48:37.080Z,8.20
2018-03-24T07:51:04.010Z,8.20
2018-03-24T07:53:31.033Z,9.50
2018-03-24T07:55:57.994Z,10.30
2018-03-24T07:58:24.956Z,11.10
2018-03-24T08:00:51.936Z,13.30
2018-03-24T08:03:18.827Z,11.90
2018-03-24T08:05:45.807Z,12.90
2018-03-24T08:08:12.695Z,13.70
2018-03-24T08:10:40.406Z,17.80
2018-03-24T08:13:07.348Z,17.50
2018-03-24T08:15:34.356Z,18.60
2018-03-24T08:18:01.999Z,21.90
2018-03-24T08:20:28.934Z,21.80
2018-03-24T08:22:55.875Z,22.60
2018-03-24T08:25:22.780Z,22.90
2018-03-24T08:27:49.798Z,21.70
2018-03-24T08:30:16.877Z,19.30
2018-03-24T08:32:43.814Z,15.70
2018-03-24T08:35:10.763Z,17.50
2018-03-24T08:37:37.789Z,17.10
2018-03-24T08:40:05.551Z,18.80
2018-03-24T08:42:32.439Z,18.80
2018-03-24T08:44:59.432Z,16.70
2018-03-24T08:47:26.348Z,20.60
2018-03-24T08:49:53.333Z,17.00
2018-03-24T08:52:20.308Z,19.10
2018-03-24T08:54:47.213Z,19.30
2018-03-24T08:57:14.277Z,18.00
2018-03-24T08:59:41.905Z,18.00
2018-03-24T09:02:08.816Z,18.10
2018-03-24T09:04:35.816Z,18.00
2018-03-24T09:07:02.777Z,17.30
2018-03-24T09:09:29.697Z,17.10
2018-03-24T09:11:56.683Z,19.60
2018-03-24T09:14:24.446Z,20.90
2018-03-24T09:16:53.447Z,21.30
2018-03-24T09:19:21.460Z,18.50
2018-03-24T09:21:48.484Z,18.40
2018-03-24T09:24:15.502Z,19.30
2018-03-24T09:26:42.502Z,18.10
2018-03-24T09:29:09.586Z,15.30
2018-03-24T09:31:36.579Z,16.50
2018-03-24T09:34:03.545Z,16.50
2018-03-24T09:36:30.432Z,17.80
2018-03-24T09:38:57.534Z,16.40
2018-03-24T09:41:24.519Z,13.80
2018-03-24T09:43:51.447Z,15.00
2018-03-24T09:46:18.424Z,16.10
2018-03-24T09:48:45.357Z,16.30
2018-03-24T09:51:12.237Z,14.80
2018-03-24T09:53:39.994Z,14.20
2018-03-24T09:56:07.611Z,13.60
2018-03-24T09:58:34.788Z,13.50
2018-03-24T10:01:01.821Z,12.50
2018-03-24T10:03:28.716Z,13.10
2018-03-24T10:05:55.665Z,12.90
2018-03-24T10:08:22.546Z,11.50
2018-03-24T10:10:49.512Z,12.20
2018-03-24T10:13:16.484Z,11.60
2018-03-24T10:15:44.033Z,10.80
2018-03-24T10:18:11.073Z,11.20
2018-03-24T10:20:51.190Z,11.00
2018-03-24T10:23:30.265Z,10.60
2018-03-24T10:25:57.210Z,10.80
2018-03-24T10:28:24.143Z,11.70
2018-03-24T10:30:51.029Z,11.50
2018-03-24T10:33:18.014Z,11.00
2018-03-24T10:35:44.888Z,10.80
2018-03-24T10:38:12.659Z,11.30
2018-03-24T10:40:39.759Z,11.30
2018-03-24T10:43:12.708Z,11.50
2018-03-24T10:45:41.014Z,11.70
2018-03-24T10:48:08.020Z,11.70
2018-03-24T10:50:34.971Z,12.30
2018-03-24T10:53:03.702Z,12.70
2018-03-24T10:55:31.531Z,12.70
2018-03-24T10:57:58.614Z,12.20
2018-03-24T11:00:31.587Z,12.70
2018-03-24T11:02:58.471Z,13.00
2018-03-24T11:05:25.489Z,12.60
2018-03-24T11:07:52.427Z,12.90
2018-03-24T11:10:20.093Z,14.00
2018-03-24T11:12:47.044Z,13.90
2018-03-24T11:15:13.921Z,13.10
2018-03-24T11:17:40.894Z,14.10
2018-03-24T11:20:07.839Z,14.60
2018-03-24T11:22:34.812Z,13.30
2018-03-24T11:25:01.693Z,13.70
2018-03-24T11:27:28.639Z,13.90
2018-03-24T11:29:55.572Z,13.60
2018-03-24T11:32:22.525Z,13.40
2018-03-24T11:34:49.401Z,13.00
2018-03-24T11:37:16.343Z,11.60
2018-03-24T11:39:43.217Z,11.80
2018-03-24T11:42:10.908Z,11.70
2018-03-24T11:44:37.846Z,11.70
2018-03-24T11:47:04.863Z,11.40
2018-03-24T11:49:31.817Z,10.90
2018-03-24T11:51:58.720Z,10.70
2018-03-24T11:54:37.806Z,11.30
2018-03-24T11:57:05.444Z,12.30
2018-03-24T11:59:32.513Z,12.30
2018-03-24T12:01:59.395Z,12.60
2018-03-24T12:04:26.268Z,12.70
2018-03-24T12:06:53.222Z,13.90
2018-03-24T12:09:20.096Z,13.60
2018-03-24T12:11:47.789Z,13.40
2018-03-24T12:14:14.668Z,13.40
2018-03-24T12:16:41.596Z,13.10
2018-03-24T12:19:08.480Z,13.80
2018-03-24T12:21:35.409Z,13.80
2018-03-24T12:24:02.371Z,13.40
2018-03-24T12:26:29.343Z,14.10
2018-03-24T12:28:56.984Z,14.50
2018-03-24T12:31:23.972Z,14.50
2018-03-24T12:33:50.869Z,15.20
2018-03-24T12:36:17.855Z,13.50
2018-03-24T12:38:44.786Z,14.90
2018-03-24T12:41:11.731Z,14.90
2018-03-24T12:43:38.731Z,14.80
2018-03-24T12:46:06.341Z,14.60
2018-03-24T12:48:34.211Z,13.10
2018-03-24T12:51:01.952Z,13.10
2018-03-24T12:53:28.866Z,13.10
2018-03-24T12:55:55.781Z,13.70
2018-03-24T12:58:22.947Z,13.20
2018-03-24T13:00:49.867Z,13.40
2018-03-24T13:03:16.823Z,12.90
2018-03-24T13:05:43.716Z,12.40
2018-03-24T13:08:10.659Z,11.70
2018-03-24T13:10:37.549Z,11.80
2018-03-24T13:13:04.499Z,12.00
2018-03-24T13:15:32.120Z,12.30
2018-03-24T13:17:59.083Z,12.30
2018-03-24T13:20:25.994Z,11.90
2018-03-24T13:22:53.047Z,11.50
2018-03-24T13:25:19.919Z,12.00
2018-03-24T13:27:46.823Z,12.00
2018-03-24T13:30:13.787Z,12.20
2018-03-24T13:32:40.692Z,12.00
2018-03-24T13:35:07.567Z,12.40
2018-03-24T13:37:34.502Z,11.20
2018-03-24T13:40:01.492Z,11.20
2018-03-24T13:42:28.512Z,11.40
2018-03-24T13:44:55.389Z,11.10
2018-03-24T13:47:22.321Z,10.80
2018-03-24T13:49:49.235Z,10.60
2018-03-24T13:52:16.231Z,10.60
2018-03-24T13:54:43.144Z,10.60
2018-03-24T13:57:10.082Z,10.70
2018-03-24T13:59:37.073Z,10.70
2018-03-24T14:02:04.059Z,10.60
2018-03-24T14:04:31.024Z,10.60
2018-03-24T14:06:57.942Z,11.40
2018-03-24T14:09:24.991Z,11.80
2018-03-24T14:11:51.988Z,11.80
2018-03-24T14:14:19.010Z,11.70
2018-03-24T14:16:46.013Z,11.90
2018-03-24T14:19:12.871Z,12.10
2018-03-24T14:21:39.899Z,12.00
2018-03-24T14:24:06.871Z,12.30
2018-03-24T14:26:33.827Z,12.30
2018-03-24T14:29:00.746Z,12.70
2018-03-24T14:31:27.708Z,12.70
2018-03-24T14:33:54.729Z,12.10
2018-03-24T14:36:21.684Z,12.50
2018-03-24T14:38:48.585Z,12.00
2018-03-24T14:41:15.608Z,11.80
2018-03-24T14:43:42.573Z,12.30
2018-03-24T14:46:09.488Z,12.30
2018-03-24T14:48:36.443Z,12.10
2018-03-24T14:51:03.484Z,11.70
2018-03-24T14:53:30.377Z,12.00
2018-03-24T14:55:57.274Z,12.30
2018-03-24T14:58:24.229Z,12.40
2018-03-24T15:00:51.128Z,12.40
2018-03-24T15:03:18.122Z,12.30
2018-03-24T15:05:45.058Z,12.30
2018-03-24T15:08:12.779Z,12.50
2018-03-24T15:10:39.664Z,12.50
2018-03-24T15:13:06.591Z,12.10
2018-03-24T15:15:34.309Z,12.50
2018-03-24T15:18:01.208Z,12.50
2018-03-24T15:20:28.932Z,12.80
2018-03-24T15:22:55.935Z,12.70
2018-03-24T15:25:22.888Z,12.60
2018-03-24T15:27:49.780Z,12.40
2018-03-24T15:30:28.892Z,12.30
2018-03-24T15:33:05.008Z,12.50
2018-03-24T15:35:32.781Z,12.30
2018-03-24T15:37:59.738Z,12.30
2018-03-24T15:40:26.877Z,12.10
2018-03-24T15:42:54.516Z,12.20
2018-03-24T15:45:21.397Z,12.20
2018-03-24T15:47:48.364Z,12.10
2018-03-24T15:50:15.260Z,12.10
2018-03-24T15:52:42.942Z,11.70
2018-03-24T15:55:09.972Z,11.70
2018-03-24T15:57:36.866Z,12.20
2018-03-24T16:00:03.904Z,12.10
2018-03-24T16:02:30.805Z,12.00
2018-03-24T16:04:57.812Z,11.60
2018-03-24T16:07:24.688Z,11.80
2018-03-24T16:09:51.633Z,12.00
2018-03-24T16:12:18.566Z,11.80
2018-03-24T16:14:45.521Z,11.70
2018-03-24T16:17:16.299Z,11.70
2018-03-24T16:19:43.315Z,11.50
2018-03-24T16:22:15.554Z,11.60
2018-03-24T16:24:42.701Z,11.70
2018-03-24T16:27:10.220Z,11.40
2018-03-24T16:29:37.214Z,11.70
2018-03-24T16:32:04.165Z,11.60
2018-03-24T16:34:31.035Z,11.70
2018-03-24T16:36:57.988Z,11.40
2018-03-24T16:39:25.748Z,11.60
2018-03-24T16:41:52.778Z,11.50
2018-03-24T16:44:19.667Z,11.50
2018-03-24T16:46:46.556Z,11.50
2018-03-24T16:49:13.552Z,11.50
2018-03-24T16:51:41.205Z,11.40
2018-03-24T16:54:08.914Z,11.20
2018-03-24T16:56:35.868Z,11.10
2018-03-24T16:59:02.777Z,11.00
2018-03-24T17:01:30.507Z,11.00
2018-03-24T17:03:58.152Z,10.90
2018-03-24T17:06:25.054Z,10.90
2018-03-24T17:08:52.050Z,10.90
2018-03-24T17:11:18.952Z,11.00
2018-03-24T17:13:45.933Z,10.90
2018-03-24T17:16:12.833Z,10.80
2018-03-24T17:18:39.712Z,10.80
2018-03-24T17:21:06.640Z,10.60
2018-03-24T17:23:33.644Z,10.70
2018-03-24T17:26:01.613Z,10.60
2018-03-24T17:28:28.610Z,10.60
2018-03-24T17:30:55.476Z,10.60
2018-03-24T17:33:22.456Z,10.50
2018-03-24T17:35:49.396Z,10.50
2018-03-24T17:38:16.300Z,10.30
2018-03-24T17:40:43.320Z,10.30
2018-03-24T17:43:11.015Z,10.20
2018-03-24T17:45:37.945Z,10.20
2018-03-24T17:48:05.001Z,10.10
2018-03-24T17:50:31.996Z,10.00
2018-03-24T17:52:58.960Z,10.00
2018-03-24T17:55:25.831Z,9.90
2018-03-24T17:57:52.735Z,9.80
2018-03-24T18:00:19.709Z,9.80
2018-03-24T18:02:47.382Z,9.60
2018-03-24T18:05:14.352Z,9.60
2018-03-24T18:07:41.251Z,9.60
2018-03-24T18:10:08.229Z,9.50
2018-03-24T18:12:35.184Z,9.40
2018-03-24T18:15:02.085Z,9.30
2018-03-24T18:17:29.804Z,9.10
2018-03-24T18:19:56.766Z,9.00
2018-03-24T18:22:23.700Z,9.00
2018-03-24T18:24:50.668Z,8.90
2018-03-24T18:27:17.595Z,8.90
2018-03-24T18:29:44.550Z,8.70
2018-03-24T18:32:11.464Z,8.60
2018-03-24T18:34:38.445Z,8.40
2018-03-24T18:37:05.321Z,8.40
2018-03-24T18:39:33.052Z,8.40
2018-03-24T18:42:00.024Z,8.40
2018-03-24T18:44:27.736Z,8.20
2018-03-24T18:46:54.728Z,8.20
2018-03-24T18:49:21.720Z,8.10
2018-03-24T18:51:48.790Z,8.20
2018-03-24T18:54:15.776Z,8.10
2018-03-24T18:56:42.731Z,8.10
2018-03-24T18:59:09.678Z,8.10
2018-03-24T19:01:37.408Z,8.10
2018-03-24T19:04:04.439Z,8.10
2018-03-24T19:06:31.340Z,8.00
2018-03-24T19:08:59.040Z,8.00
2018-03-24T19:11:25.922Z,7.90
2018-03-24T19:13:52.819Z,7.90
2018-03-24T19:16:19.795Z,7.80
2018-03-24T19:18:46.740Z,7.60
2018-03-24T19:21:13.753Z,7.60
2018-03-24T19:23:40.644Z,7.50
2018-03-24T19:26:07.625Z,7.30
2018-03-24T19:28:35.284Z,7.30
2018-03-24T19:31:03.045Z,7.20
2018-03-24T19:33:29.988Z,7.20
2018-03-24T19:35:56.881Z,7.30
2018-03-24T19:38:23.857Z,7.30
2018-03-24T19:40:53.218Z,7.30
2018-03-24T19:43:23.031Z,7.30
2018-03-24T19:45:50.135Z,7.30
2018-03-24T19:48:17.020Z,7.30
2018-03-24T19:50:44.128Z,7.30
2018-03-24T19:53:11.023Z,7.20
2018-03-24T19:55:38.207Z,7.20
2018-03-24T19:58:05.106Z,7.10
2018-03-24T20:00:32.788Z,6.80
2018-03-24T20:02:59.731Z,6.80
2018-03-24T20:05:27.866Z,6.80
2018-03-24T20:07:57.511Z,6.70
2018-03-24T20:10:32.539Z,6.70
2018-03-24T20:13:07.445Z,6.70
2018-03-24T20:15:34.935Z,6.60
2018-03-24T20:18:02.620Z,6.70
2018-03-24T20:20:29.632Z,6.60
2018-03-24T20:22:57.336Z,6.70
2018-03-24T20:25:24.295Z,6.70
2018-03-24T20:27:51.253Z,6.70
2018-03-24T20:30:18.225Z,6.70
2018-03-24T20:32:45.228Z,6.70
2018-03-24T20:35:12.188Z,6.70
2018-03-24T20:37:39.137Z,6.60
2018-03-24T20:40:06.819Z,6.50
2018-03-24T20:42:33.821Z,6.40
2018-03-24T20:45:00.739Z,6.30
2018-03-24T20:47:28.541Z,6.20
2018-03-24T20:49:55.720Z,6.20
2018-03-24T20:52:22.660Z,6.10
2018-03-24T20:55:00.730Z,6.10
2018-03-24T20:57:33.000Z,6.00
2018-03-24T21:00:03.657Z,5.90
2018-03-24T21:02:30.815Z,5.80
2018-03-24T21:05:09.657Z,5.80
2018-03-24T21:07:48.223Z,5.80
2018-03-24T21:10:28.425Z,5.80
2018-03-24T21:13:07.937Z,5.90
2018-03-24T21:15:47.878Z,5.90
2018-03-24T21:18:15.565Z,5.90
2018-03-24T21:20:46.400Z,5.70
2018-03-24T21:23:24.682Z,5.70
2018-03-24T21:26:03.252Z,5.60
2018-03-24T21:28:30.905Z,5.50
2018-03-24T21:31:09.175Z,5.40
2018-03-24T21:33:36.838Z,5.40
2018-03-24T21:36:16.381Z,5.40
2018-03-24T21:38:53.575Z,5.40
2018-03-24T21:41:30.803Z,5.40
2018-03-24T21:44:05.292Z,5.40
2018-03-24T21:46:43.800Z,5.50
2018-03-24T21:49:23.189Z,5.50
2018-03-24T21:52:03.647Z,5.60
2018-03-24T21:54:42.370Z,5.50
2018-03-24T21:57:22.005Z,5.60
2018-03-24T22:00:00.598Z,5.60
2018-03-24T22:02:28.297Z,5.50
2018-03-24T22:04:58.782Z,5.30
2018-03-24T22:07:37.623Z,5.20
2018-03-24T22:10:09.126Z,5.20
2018-03-24T22:12:36.116Z,4.80
2018-03-24T22:15:03.124Z,4.80
2018-03-24T22:17:35.368Z,4.60
2018-03-24T22:20:02.969Z,4.40
2018-03-24T22:22:36.417Z,4.40
2018-03-24T22:25:04.316Z,4.40
2018-03-24T22:27:31.653Z,4.30
2018-03-24T22:29:58.633Z,4.40
2018-03-24T22:32:26.357Z,4.40
2018-03-24T22:35:06.866Z,4.40
2018-03-24T22:37:43.893Z,4.40
2018-03-24T22:40:19.887Z,4.30
2018-03-24T22:42:46.930Z,4.40
2018-03-24T22:45:25.479Z,4.40
2018-03-24T22:47:53.160Z,4.50
2018-03-24T22:50:32.483Z,4.20
2018-03-24T22:53:00.169Z,4.20
2018-03-24T22:55:27.112Z,4.10
2018-03-24T22:57:53.997Z,4.10
2018-03-24T23:00:33.023Z,4.00
2018-03-24T23:03:15.472Z,4.10
2018-03-24T23:05:56.366Z,4.10
2018-03-24T23:08:38.467Z,4.10
2018-03-24T23:11:06.978Z,3.70
2018-03-24T23:13:33.922Z,3.80
2018-03-24T23:16:00.867Z,3.70
2018-03-24T23:18:27.735Z,3.60
2018-03-24T23:20:54.689Z,3.70
2018-03-24T23:23:21.588Z,3.80
2018-03-24T23:25:48.556Z,3.90
2018-03-24T23:28:15.440Z,3.90
2018-03-24T23:30:47.210Z,4.10
2018-03-24T23:33:25.771Z,4.30
2018-03-24T23:36:00.786Z,4.40
2018-03-24T23:38:39.008Z,4.40
2018-03-24T23:41:06.698Z,4.60
2018-03-24T23:43:35.617Z,4.70
2018-03-24T23:46:14.335Z,4.70
2018-03-24T23:48:41.999Z,4.50
2018-03-24T23:51:20.741Z,4.20
2018-03-24T23:53:59.501Z,3.90
2018-03-24T23:56:27.038Z,3.90
2018-03-24T23:59:05.009Z,4.00
